sensor_id;sensor_type;location;lat;lon;timestamp;temperature;humidity
83828;DHT22;74656;48.870;12.562;2024-01-30T00:00:55;-0.30;85.10
83828;DHT22;74656;48.870;12.562;2024-01-30T00:03:57;-0.40;85.10
83828;DHT22;74656;48.870;12.562;2024-01-30T00:06:59;-0.40;85.10
83828;DHT22;74656;48.870;12.562;2024-01-30T00:10:01;-0.50;85.40
83828;DHT22;74656;48.870;12.562;2024-01-30T00:13:04;-0.50;85.40
83828;DHT22;74656;48.870;12.562;2024-01-30T00:16:06;-0.50;85.30
83828;DHT22;74656;48.870;12.562;2024-01-30T00:19:08;-0.50;85.40
83828;DHT22;74656;48.870;12.562;2024-01-30T00:22:11;-0.60;85.20
83828;DHT22;74656;48.870;12.562;2024-01-30T00:25:13;-0.60;85.30
83828;DHT22;74656;48.870;12.562;2024-01-30T00:28:15;-0.60;85.40
83828;DHT22;74656;48.870;12.562;2024-01-30T00:31:17;-0.60;85.40
83828;DHT22;74656;48.870;12.562;2024-01-30T00:34:19;-0.60;85.60
83828;DHT22;74656;48.870;12.562;2024-01-30T00:37:21;-0.70;85.40
83828;DHT22;74656;48.870;12.562;2024-01-30T00:40:23;-0.70;85.30
83828;DHT22;74656;48.870;12.562;2024-01-30T00:43:25;-0.80;85.40
83828;DHT22;74656;48.870;12.562;2024-01-30T00:46:27;-0.80;85.50
83828;DHT22;74656;48.870;12.562;2024-01-30T00:49:29;-0.80;85.50
83828;DHT22;74656;48.870;12.562;2024-01-30T00:52:32;-0.80;85.40
83828;DHT22;74656;48.870;12.562;2024-01-30T00:55:34;-0.80;85.60
83828;DHT22;74656;48.870;12.562;2024-01-30T00:58:36;-0.80;85.60
83828;DHT22;74656;48.870;12.562;2024-01-30T01:01:37;-0.80;85.70
83828;DHT22;74656;48.870;12.562;2024-01-30T01:04:39;-0.90;85.50
83828;DHT22;74656;48.870;12.562;2024-01-30T01:07:42;-0.90;85.50
83828;DHT22;74656;48.870;12.562;2024-01-30T01:10:44;-0.80;85.70
83828;DHT22;74656;48.870;12.562;2024-01-30T01:13:46;-0.80;85.70
83828;DHT22;74656;48.870;12.562;2024-01-30T01:16:47;-0.90;85.50
83828;DHT22;74656;48.870;12.562;2024-01-30T01:19:49;-1.00;85.30
83828;DHT22;74656;48.870;12.562;2024-01-30T01:22:51;-1.00;85.20
83828;DHT22;74656;48.870;12.562;2024-01-30T01:25:53;-1.10;85.10
83828;DHT22;74656;48.870;12.562;2024-01-30T01:28:58;-1.10;84.90
83828;DHT22;74656;48.870;12.562;2024-01-30T01:32:00;-1.20;85.00
83828;DHT22;74656;48.870;12.562;2024-01-30T01:35:02;-1.20;85.10
83828;DHT22;74656;48.870;12.562;2024-01-30T01:38:05;-1.20;85.20
83828;DHT22;74656;48.870;12.562;2024-01-30T01:41:06;-1.20;85.40
83828;DHT22;74656;48.870;12.562;2024-01-30T01:44:09;-1.10;85.70
83828;DHT22;74656;48.870;12.562;2024-01-30T01:47:11;-1.20;85.60
83828;DHT22;74656;48.870;12.562;2024-01-30T01:50:14;-1.20;85.50
83828;DHT22;74656;48.870;12.562;2024-01-30T01:53:17;-1.20;85.50
83828;DHT22;74656;48.870;12.562;2024-01-30T01:56:19;-1.20;85.50
83828;DHT22;74656;48.870;12.562;2024-01-30T01:59:24;-1.20;85.40
83828;DHT22;74656;48.870;12.562;2024-01-30T02:02:26;-1.30;85.20
83828;DHT22;74656;48.870;12.562;2024-01-30T02:05:30;-1.20;85.30
83828;DHT22;74656;48.870;12.562;2024-01-30T02:08:34;-1.30;85.30
83828;DHT22;74656;48.870;12.562;2024-01-30T02:11:36;-1.30;85.30
83828;DHT22;74656;48.870;12.562;2024-01-30T02:14:46;-1.30;85.30
83828;DHT22;74656;48.870;12.562;2024-01-30T02:17:48;-1.30;85.70
83828;DHT22;74656;48.870;12.562;2024-01-30T02:20:53;-1.20;85.70
83828;DHT22;74656;48.870;12.562;2024-01-30T02:23:56;-1.30;85.60
83828;DHT22;74656;48.870;12.562;2024-01-30T02:26:59;-1.30;85.50
83828;DHT22;74656;48.870;12.562;2024-01-30T02:30:01;-1.30;85.60
83828;DHT22;74656;48.870;12.562;2024-01-30T02:33:04;-1.30;85.50
83828;DHT22;74656;48.870;12.562;2024-01-30T02:36:06;-1.30;85.50
83828;DHT22;74656;48.870;12.562;2024-01-30T02:39:09;-1.30;85.60
83828;DHT22;74656;48.870;12.562;2024-01-30T02:42:11;-1.30;85.60
83828;DHT22;74656;48.870;12.562;2024-01-30T02:45:13;-1.30;85.80
83828;DHT22;74656;48.870;12.562;2024-01-30T02:48:15;-1.30;85.90
83828;DHT22;74656;48.870;12.562;2024-01-30T02:51:17;-1.30;85.90
83828;DHT22;74656;48.870;12.562;2024-01-30T02:54:19;-1.30;85.90
83828;DHT22;74656;48.870;12.562;2024-01-30T02:57:21;-1.20;85.80
83828;DHT22;74656;48.870;12.562;2024-01-30T03:00:23;-1.30;85.70
83828;DHT22;74656;48.870;12.562;2024-01-30T03:03:25;-1.30;85.70
83828;DHT22;74656;48.870;12.562;2024-01-30T03:06:27;-1.30;85.70
83828;DHT22;74656;48.870;12.562;2024-01-30T03:09:29;-1.30;85.70
83828;DHT22;74656;48.870;12.562;2024-01-30T03:12:32;-1.30;85.80
83828;DHT22;74656;48.870;12.562;2024-01-30T03:15:34;-1.30;85.70
83828;DHT22;74656;48.870;12.562;2024-01-30T03:18:36;-1.30;85.60
83828;DHT22;74656;48.870;12.562;2024-01-30T03:21:38;-1.40;85.70
83828;DHT22;74656;48.870;12.562;2024-01-30T03:24:40;-1.40;85.60
83828;DHT22;74656;48.870;12.562;2024-01-30T03:27:42;-1.40;85.70
83828;DHT22;74656;48.870;12.562;2024-01-30T03:30:44;-1.40;85.60
83828;DHT22;74656;48.870;12.562;2024-01-30T03:33:46;-1.40;85.60
83828;DHT22;74656;48.870;12.562;2024-01-30T03:36:48;-1.50;85.30
83828;DHT22;74656;48.870;12.562;2024-01-30T03:39:50;-1.50;85.60
83828;DHT22;74656;48.870;12.562;2024-01-30T03:42:52;-1.50;85.80
83828;DHT22;74656;48.870;12.562;2024-01-30T03:45:54;-1.50;85.70
83828;DHT22;74656;48.870;12.562;2024-01-30T03:48:57;-1.60;85.40
83828;DHT22;74656;48.870;12.562;2024-01-30T03:51:59;-1.60;85.60
83828;DHT22;74656;48.870;12.562;2024-01-30T03:55:01;-1.60;85.70
83828;DHT22;74656;48.870;12.562;2024-01-30T03:58:03;-1.50;86.00
83828;DHT22;74656;48.870;12.562;2024-01-30T04:01:05;-1.50;85.90
83828;DHT22;74656;48.870;12.562;2024-01-30T04:04:07;-1.60;85.70
83828;DHT22;74656;48.870;12.562;2024-01-30T04:07:09;-1.60;85.50
83828;DHT22;74656;48.870;12.562;2024-01-30T04:10:11;-1.70;85.50
83828;DHT22;74656;48.870;12.562;2024-01-30T04:13:13;-1.70;85.50
83828;DHT22;74656;48.870;12.562;2024-01-30T04:16:22;-1.70;85.60
83828;DHT22;74656;48.870;12.562;2024-01-30T04:19:24;-1.70;85.60
83828;DHT22;74656;48.870;12.562;2024-01-30T04:22:27;-1.70;85.80
83828;DHT22;74656;48.870;12.562;2024-01-30T04:25:29;-1.70;85.80
83828;DHT22;74656;48.870;12.562;2024-01-30T04:28:31;-1.70;85.70
83828;DHT22;74656;48.870;12.562;2024-01-30T04:31:35;-1.60;86.10
83828;DHT22;74656;48.870;12.562;2024-01-30T04:34:37;-1.60;86.10
83828;DHT22;74656;48.870;12.562;2024-01-30T04:37:40;-1.60;86.10
83828;DHT22;74656;48.870;12.562;2024-01-30T04:40:42;-1.60;86.00
83828;DHT22;74656;48.870;12.562;2024-01-30T04:43:44;-1.60;86.10
83828;DHT22;74656;48.870;12.562;2024-01-30T04:46:46;-1.50;86.00
83828;DHT22;74656;48.870;12.562;2024-01-30T04:49:48;-1.60;86.00
83828;DHT22;74656;48.870;12.562;2024-01-30T04:52:50;-1.60;85.70
83828;DHT22;74656;48.870;12.562;2024-01-30T04:55:52;-1.60;85.50
83828;DHT22;74656;48.870;12.562;2024-01-30T04:58:54;-1.70;85.60
83828;DHT22;74656;48.870;12.562;2024-01-30T05:01:56;-1.70;85.50
83828;DHT22;74656;48.870;12.562;2024-01-30T05:04:58;-1.70;85.40
83828;DHT22;74656;48.870;12.562;2024-01-30T05:08:01;-1.80;85.30
83828;DHT22;74656;48.870;12.562;2024-01-30T05:11:04;-1.80;85.20
83828;DHT22;74656;48.870;12.562;2024-01-30T05:14:07;-1.90;85.10
83828;DHT22;74656;48.870;12.562;2024-01-30T05:17:09;-1.90;85.20
83828;DHT22;74656;48.870;12.562;2024-01-30T05:20:11;-1.90;85.20
83828;DHT22;74656;48.870;12.562;2024-01-30T05:23:13;-1.90;85.30
83828;DHT22;74656;48.870;12.562;2024-01-30T05:26:15;-1.90;85.50
83828;DHT22;74656;48.870;12.562;2024-01-30T05:29:18;-1.90;85.70
83828;DHT22;74656;48.870;12.562;2024-01-30T05:32:20;-1.90;85.80
83828;DHT22;74656;48.870;12.562;2024-01-30T05:35:22;-1.90;85.80
83828;DHT22;74656;48.870;12.562;2024-01-30T05:38:24;-1.90;85.70
83828;DHT22;74656;48.870;12.562;2024-01-30T05:41:26;-1.90;85.60
83828;DHT22;74656;48.870;12.562;2024-01-30T05:44:27;-2.00;85.60
83828;DHT22;74656;48.870;12.562;2024-01-30T05:47:30;-2.00;85.60
83828;DHT22;74656;48.870;12.562;2024-01-30T05:50:32;-2.00;85.80
83828;DHT22;74656;48.870;12.562;2024-01-30T05:53:34;-2.00;86.00
83828;DHT22;74656;48.870;12.562;2024-01-30T05:56:36;-1.90;86.30
83828;DHT22;74656;48.870;12.562;2024-01-30T05:59:38;-1.90;86.30
83828;DHT22;74656;48.870;12.562;2024-01-30T06:02:43;-2.00;86.00
83828;DHT22;74656;48.870;12.562;2024-01-30T06:05:45;-2.00;85.60
83828;DHT22;74656;48.870;12.562;2024-01-30T06:08:47;-2.00;85.60
83828;DHT22;74656;48.870;12.562;2024-01-30T06:11:49;-2.00;85.80
83828;DHT22;74656;48.870;12.562;2024-01-30T06:14:50;-2.00;85.80
83828;DHT22;74656;48.870;12.562;2024-01-30T06:17:53;-2.00;86.00
83828;DHT22;74656;48.870;12.562;2024-01-30T06:20:55;-2.00;85.90
83828;DHT22;74656;48.870;12.562;2024-01-30T06:23:57;-2.00;85.90
83828;DHT22;74656;48.870;12.562;2024-01-30T06:26:59;-2.00;85.90
83828;DHT22;74656;48.870;12.562;2024-01-30T06:30:01;-2.00;85.80
83828;DHT22;74656;48.870;12.562;2024-01-30T06:33:03;-2.00;85.90
83828;DHT22;74656;48.870;12.562;2024-01-30T06:36:06;-2.00;86.00
83828;DHT22;74656;48.870;12.562;2024-01-30T06:39:08;-1.90;86.20
83828;DHT22;74656;48.870;12.562;2024-01-30T06:42:10;-1.90;86.40
83828;DHT22;74656;48.870;12.562;2024-01-30T06:45:12;-1.80;86.40
83828;DHT22;74656;48.870;12.562;2024-01-30T06:48:13;-1.70;86.70
83828;DHT22;74656;48.870;12.562;2024-01-30T06:51:15;-1.70;86.90
83828;DHT22;74656;48.870;12.562;2024-01-30T06:54:18;-1.60;86.90
83828;DHT22;74656;48.870;12.562;2024-01-30T06:57:20;-1.50;86.80
83828;DHT22;74656;48.870;12.562;2024-01-30T07:00:22;-1.50;86.90
83828;DHT22;74656;48.870;12.562;2024-01-30T07:03:24;-1.40;87.30
83828;DHT22;74656;48.870;12.562;2024-01-30T07:06:26;-1.30;87.30
83828;DHT22;74656;48.870;12.562;2024-01-30T07:09:30;-1.20;87.50
83828;DHT22;74656;48.870;12.562;2024-01-30T07:12:32;-1.10;87.60
83828;DHT22;74656;48.870;12.562;2024-01-30T07:15:34;-1.00;87.60
83828;DHT22;74656;48.870;12.562;2024-01-30T07:18:36;-1.00;87.80
83828;DHT22;74656;48.870;12.562;2024-01-30T07:21:37;-0.80;87.90
83828;DHT22;74656;48.870;12.562;2024-01-30T07:24:43;-0.70;88.10
83828;DHT22;74656;48.870;12.562;2024-01-30T07:27:45;-0.60;88.20
83828;DHT22;74656;48.870;12.562;2024-01-30T07:30:47;-0.50;88.20
83828;DHT22;74656;48.870;12.562;2024-01-30T07:33:48;-0.40;88.40
83828;DHT22;74656;48.870;12.562;2024-01-30T07:36:50;-0.30;88.50
83828;DHT22;74656;48.870;12.562;2024-01-30T07:39:56;-0.10;88.60
83828;DHT22;74656;48.870;12.562;2024-01-30T07:42:58;0.00;88.60
83828;DHT22;74656;48.870;12.562;2024-01-30T07:45:59;0.00;88.60
83828;DHT22;74656;48.870;12.562;2024-01-30T07:49:02;0.20;88.60
83828;DHT22;74656;48.870;12.562;2024-01-30T07:52:04;0.30;88.50
83828;DHT22;74656;48.870;12.562;2024-01-30T07:55:06;0.40;88.20
83828;DHT22;74656;48.870;12.562;2024-01-30T07:58:09;0.60;87.90
83828;DHT22;74656;48.870;12.562;2024-01-30T08:01:14;0.70;87.80
83828;DHT22;74656;48.870;12.562;2024-01-30T08:04:16;0.80;88.20
83828;DHT22;74656;48.870;12.562;2024-01-30T08:07:18;0.90;87.50
83828;DHT22;74656;48.870;12.562;2024-01-30T08:10:20;1.00;87.60
83828;DHT22;74656;48.870;12.562;2024-01-30T08:13:22;1.10;88.40
83828;DHT22;74656;48.870;12.562;2024-01-30T08:16:24;1.20;88.40
83828;DHT22;74656;48.870;12.562;2024-01-30T08:19:26;1.40;88.00
83828;DHT22;74656;48.870;12.562;2024-01-30T08:22:28;1.50;86.10
83828;DHT22;74656;48.870;12.562;2024-01-30T08:25:30;1.50;86.20
83828;DHT22;74656;48.870;12.562;2024-01-30T08:28:31;1.50;86.10
83828;DHT22;74656;48.870;12.562;2024-01-30T08:31:33;1.80;85.00
83828;DHT22;74656;48.870;12.562;2024-01-30T08:34:35;1.70;84.60
83828;DHT22;74656;48.870;12.562;2024-01-30T08:37:37;1.80;84.80
83828;DHT22;74656;48.870;12.562;2024-01-30T08:40:39;1.80;85.10
83828;DHT22;74656;48.870;12.562;2024-01-30T08:43:41;1.80;85.80
83828;DHT22;74656;48.870;12.562;2024-01-30T08:46:44;1.90;84.70
83828;DHT22;74656;48.870;12.562;2024-01-30T08:49:46;2.10;83.70
83828;DHT22;74656;48.870;12.562;2024-01-30T08:52:48;2.20;81.70
83828;DHT22;74656;48.870;12.562;2024-01-30T08:55:51;2.30;81.40
83828;DHT22;74656;48.870;12.562;2024-01-30T08:58:52;2.30;82.90
83828;DHT22;74656;48.870;12.562;2024-01-30T09:01:55;2.40;83.90
83828;DHT22;74656;48.870;12.562;2024-01-30T09:05:12;2.40;83.00
83828;DHT22;74656;48.870;12.562;2024-01-30T09:08:14;2.50;83.70
83828;DHT22;74656;48.870;12.562;2024-01-30T09:11:16;2.50;83.10
83828;DHT22;74656;48.870;12.562;2024-01-30T09:14:18;2.60;82.80
83828;DHT22;74656;48.870;12.562;2024-01-30T09:17:19;2.60;82.20
83828;DHT22;74656;48.870;12.562;2024-01-30T09:20:21;2.70;81.60
83828;DHT22;74656;48.870;12.562;2024-01-30T09:23:23;2.70;81.50
83828;DHT22;74656;48.870;12.562;2024-01-30T09:26:25;2.80;81.80
83828;DHT22;74656;48.870;12.562;2024-01-30T09:29:27;2.90;82.00
83828;DHT22;74656;48.870;12.562;2024-01-30T09:32:29;3.10;80.50
83828;DHT22;74656;48.870;12.562;2024-01-30T09:35:31;3.10;80.10
83828;DHT22;74656;48.870;12.562;2024-01-30T09:38:33;3.30;81.10
83828;DHT22;74656;48.870;12.562;2024-01-30T09:41:45;3.40;79.40
83828;DHT22;74656;48.870;12.562;2024-01-30T09:44:50;3.50;77.80
83828;DHT22;74656;48.870;12.562;2024-01-30T09:47:53;3.70;79.70
83828;DHT22;74656;48.870;12.562;2024-01-30T09:50:57;3.80;79.10
83828;DHT22;74656;48.870;12.562;2024-01-30T09:53:59;4.00;76.70
83828;DHT22;74656;48.870;12.562;2024-01-30T09:57:01;4.20;76.10
83828;DHT22;74656;48.870;12.562;2024-01-30T10:00:03;4.30;75.00
83828;DHT22;74656;48.870;12.562;2024-01-30T10:03:12;4.40;74.50
83828;DHT22;74656;48.870;12.562;2024-01-30T10:06:14;4.40;73.10
83828;DHT22;74656;48.870;12.562;2024-01-30T10:09:16;4.60;72.70
83828;DHT22;74656;48.870;12.562;2024-01-30T10:12:18;4.80;71.50
83828;DHT22;74656;48.870;12.562;2024-01-30T10:15:20;5.00;69.50
83828;DHT22;74656;48.870;12.562;2024-01-30T10:18:22;5.00;68.20
83828;DHT22;74656;48.870;12.562;2024-01-30T10:21:24;5.30;68.00
83828;DHT22;74656;48.870;12.562;2024-01-30T10:24:26;5.80;66.70
83828;DHT22;74656;48.870;12.562;2024-01-30T10:27:29;6.20;64.60
83828;DHT22;74656;48.870;12.562;2024-01-30T10:30:30;7.20;61.80
83828;DHT22;74656;48.870;12.562;2024-01-30T10:33:32;8.70;57.70
83828;DHT22;74656;48.870;12.562;2024-01-30T10:36:40;9.90;52.60
83828;DHT22;74656;48.870;12.562;2024-01-30T10:39:44;10.40;50.40
83828;DHT22;74656;48.870;12.562;2024-01-30T10:42:46;10.70;49.80
83828;DHT22;74656;48.870;12.562;2024-01-30T10:45:49;11.30;47.70
83828;DHT22;74656;48.870;12.562;2024-01-30T10:48:57;12.10;45.70
83828;DHT22;74656;48.870;12.562;2024-01-30T10:52:00;12.60;45.00
83828;DHT22;74656;48.870;12.562;2024-01-30T10:55:04;12.60;44.00
83828;DHT22;74656;48.870;12.562;2024-01-30T10:58:07;13.00;42.40
83828;DHT22;74656;48.870;12.562;2024-01-30T11:01:09;13.60;41.40
83828;DHT22;74656;48.870;12.562;2024-01-30T11:04:12;14.40;39.70
83828;DHT22;74656;48.870;12.562;2024-01-30T11:07:17;14.00;39.10
83828;DHT22;74656;48.870;12.562;2024-01-30T11:10:19;14.20;38.80
83828;DHT22;74656;48.870;12.562;2024-01-30T11:13:21;12.90;40.60
83828;DHT22;74656;48.870;12.562;2024-01-30T11:16:32;14.80;38.70
83828;DHT22;74656;48.870;12.562;2024-01-30T11:19:34;14.00;38.40
83828;DHT22;74656;48.870;12.562;2024-01-30T11:22:37;13.20;39.50
83828;DHT22;74656;48.870;12.562;2024-01-30T11:25:39;12.70;40.90
83828;DHT22;74656;48.870;12.562;2024-01-30T11:28:41;13.10;40.80
83828;DHT22;74656;48.870;12.562;2024-01-30T11:31:53;13.50;39.90
83828;DHT22;74656;48.870;12.562;2024-01-30T11:34:55;14.20;38.90
83828;DHT22;74656;48.870;12.562;2024-01-30T11:37:59;14.60;37.50
83828;DHT22;74656;48.870;12.562;2024-01-30T11:41:01;15.60;35.70
83828;DHT22;74656;48.870;12.562;2024-01-30T11:44:03;15.70;36.10
83828;DHT22;74656;48.870;12.562;2024-01-30T11:47:23;16.50;33.20
83828;DHT22;74656;48.870;12.562;2024-01-30T11:50:25;15.00;36.30
83828;DHT22;74656;48.870;12.562;2024-01-30T11:53:28;14.70;36.30
83828;DHT22;74656;48.870;12.562;2024-01-30T11:56:30;16.30;35.30
83828;DHT22;74656;48.870;12.562;2024-01-30T11:59:32;15.70;35.40
83828;DHT22;74656;48.870;12.562;2024-01-30T12:02:34;16.10;34.80
83828;DHT22;74656;48.870;12.562;2024-01-30T12:05:36;15.10;35.80
83828;DHT22;74656;48.870;12.562;2024-01-30T12:08:38;16.20;36.00
83828;DHT22;74656;48.870;12.562;2024-01-30T12:11:44;16.40;34.10
83828;DHT22;74656;48.870;12.562;2024-01-30T12:14:46;16.00;34.90
83828;DHT22;74656;48.870;12.562;2024-01-30T12:17:48;16.90;33.50
83828;DHT22;74656;48.870;12.562;2024-01-30T12:21:00;16.10;33.90
83828;DHT22;74656;48.870;12.562;2024-01-30T12:24:02;16.30;33.60
83828;DHT22;74656;48.870;12.562;2024-01-30T12:27:04;15.50;36.10
83828;DHT22;74656;48.870;12.562;2024-01-30T12:30:10;16.20;34.10
83828;DHT22;74656;48.870;12.562;2024-01-30T12:33:18;15.60;36.20
83828;DHT22;74656;48.870;12.562;2024-01-30T12:36:21;17.80;33.60
83828;DHT22;74656;48.870;12.562;2024-01-30T12:39:23;16.80;32.90
83828;DHT22;74656;48.870;12.562;2024-01-30T12:42:27;16.20;34.60
83828;DHT22;74656;48.870;12.562;2024-01-30T12:45:30;15.90;35.00
83828;DHT22;74656;48.870;12.562;2024-01-30T12:48:32;16.30;34.50
83828;DHT22;74656;48.870;12.562;2024-01-30T12:51:34;16.40;34.00
83828;DHT22;74656;48.870;12.562;2024-01-30T12:54:36;16.10;34.40
83828;DHT22;74656;48.870;12.562;2024-01-30T12:57:38;17.40;32.50
83828;DHT22;74656;48.870;12.562;2024-01-30T13:00:40;16.50;34.10
83828;DHT22;74656;48.870;12.562;2024-01-30T13:03:42;16.30;34.70
83828;DHT22;74656;48.870;12.562;2024-01-30T13:06:44;16.30;34.50
83828;DHT22;74656;48.870;12.562;2024-01-30T13:09:46;16.30;34.60
83828;DHT22;74656;48.870;12.562;2024-01-30T13:12:48;16.70;34.30
83828;DHT22;74656;48.870;12.562;2024-01-30T13:15:51;17.10;33.70
83828;DHT22;74656;48.870;12.562;2024-01-30T13:18:53;17.10;33.10
83828;DHT22;74656;48.870;12.562;2024-01-30T13:21:54;18.50;32.50
83828;DHT22;74656;48.870;12.562;2024-01-30T13:24:57;19.90;28.70
83828;DHT22;74656;48.870;12.562;2024-01-30T13:27:59;17.90;31.40
83828;DHT22;74656;48.870;12.562;2024-01-30T13:31:00;17.30;32.70
83828;DHT22;74656;48.870;12.562;2024-01-30T13:34:02;18.20;31.70
83828;DHT22;74656;48.870;12.562;2024-01-30T13:37:09;19.50;29.80
83828;DHT22;74656;48.870;12.562;2024-01-30T13:40:11;17.00;32.60
83828;DHT22;74656;48.870;12.562;2024-01-30T13:43:15;15.70;34.70
83828;DHT22;74656;48.870;12.562;2024-01-30T13:46:17;15.40;36.40
83828;DHT22;74656;48.870;12.562;2024-01-30T13:49:19;15.60;36.60
83828;DHT22;74656;48.870;12.562;2024-01-30T13:52:22;15.60;36.40
83828;DHT22;74656;48.870;12.562;2024-01-30T13:55:32;16.30;36.00
83828;DHT22;74656;48.870;12.562;2024-01-30T13:58:34;15.80;35.50
83828;DHT22;74656;48.870;12.562;2024-01-30T14:01:36;13.80;38.80
83828;DHT22;74656;48.870;12.562;2024-01-30T14:04:38;13.20;41.30
83828;DHT22;74656;48.870;12.562;2024-01-30T14:07:40;13.60;40.40
83828;DHT22;74656;48.870;12.562;2024-01-30T14:10:42;13.10;40.40
83828;DHT22;74656;48.870;12.562;2024-01-30T14:13:45;11.60;44.30
83828;DHT22;74656;48.870;12.562;2024-01-30T14:16:47;11.40;45.70
83828;DHT22;74656;48.870;12.562;2024-01-30T14:19:49;12.30;44.30
83828;DHT22;74656;48.870;12.562;2024-01-30T14:22:51;11.40;45.00
83828;DHT22;74656;48.870;12.562;2024-01-30T14:25:53;11.20;46.40
83828;DHT22;74656;48.870;12.562;2024-01-30T14:28:54;11.40;46.70
83828;DHT22;74656;48.870;12.562;2024-01-30T14:31:56;11.60;45.70
83828;DHT22;74656;48.870;12.562;2024-01-30T14:34:58;11.00;46.70
83828;DHT22;74656;48.870;12.562;2024-01-30T14:38:01;10.40;49.00
83828;DHT22;74656;48.870;12.562;2024-01-30T14:41:03;10.00;49.90
83828;DHT22;74656;48.870;12.562;2024-01-30T14:44:05;9.80;51.20
83828;DHT22;74656;48.870;12.562;2024-01-30T14:47:08;10.00;50.30
83828;DHT22;74656;48.870;12.562;2024-01-30T14:50:10;9.80;51.10
83828;DHT22;74656;48.870;12.562;2024-01-30T14:53:12;9.70;51.50
83828;DHT22;74656;48.870;12.562;2024-01-30T14:56:14;10.00;51.20
83828;DHT22;74656;48.870;12.562;2024-01-30T14:59:16;10.50;49.90
83828;DHT22;74656;48.870;12.562;2024-01-30T15:02:18;11.10;48.00
83828;DHT22;74656;48.870;12.562;2024-01-30T15:05:20;11.20;47.30
83828;DHT22;74656;48.870;12.562;2024-01-30T15:08:22;11.10;47.30
83828;DHT22;74656;48.870;12.562;2024-01-30T15:11:24;11.00;47.70
83828;DHT22;74656;48.870;12.562;2024-01-30T15:14:26;11.30;47.20
83828;DHT22;74656;48.870;12.562;2024-01-30T15:17:28;11.10;47.20
83828;DHT22;74656;48.870;12.562;2024-01-30T15:20:30;10.60;47.80
83828;DHT22;74656;48.870;12.562;2024-01-30T15:23:33;10.20;48.80
83828;DHT22;74656;48.870;12.562;2024-01-30T15:26:35;9.90;49.70
83828;DHT22;74656;48.870;12.562;2024-01-30T15:29:37;9.40;51.00
83828;DHT22;74656;48.870;12.562;2024-01-30T15:32:39;9.20;52.40
83828;DHT22;74656;48.870;12.562;2024-01-30T15:35:42;8.80;54.30
83828;DHT22;74656;48.870;12.562;2024-01-30T15:38:44;8.40;54.90
83828;DHT22;74656;48.870;12.562;2024-01-30T15:41:46;8.10;56.10
83828;DHT22;74656;48.870;12.562;2024-01-30T15:44:48;7.80;57.10
83828;DHT22;74656;48.870;12.562;2024-01-30T15:47:50;7.50;58.00
83828;DHT22;74656;48.870;12.562;2024-01-30T15:50:52;7.20;59.10
83828;DHT22;74656;48.870;12.562;2024-01-30T15:53:54;7.00;59.80
83828;DHT22;74656;48.870;12.562;2024-01-30T15:56:56;6.80;60.60
83828;DHT22;74656;48.870;12.562;2024-01-30T15:59:58;6.60;61.10
83828;DHT22;74656;48.870;12.562;2024-01-30T16:03:00;6.50;64.10
83828;DHT22;74656;48.870;12.562;2024-01-30T16:06:02;6.30;63.90
83828;DHT22;74656;48.870;12.562;2024-01-30T16:09:05;6.10;63.50
83828;DHT22;74656;48.870;12.562;2024-01-30T16:12:06;6.00;63.90
83828;DHT22;74656;48.870;12.562;2024-01-30T16:15:09;5.80;64.20
83828;DHT22;74656;48.870;12.562;2024-01-30T16:18:11;5.60;64.80
83828;DHT22;74656;48.870;12.562;2024-01-30T16:21:13;5.40;65.50
83828;DHT22;74656;48.870;12.562;2024-01-30T16:24:15;5.30;66.30
83828;DHT22;74656;48.870;12.562;2024-01-30T16:27:17;5.20;66.80
83828;DHT22;74656;48.870;12.562;2024-01-30T16:30:19;5.10;67.20
83828;DHT22;74656;48.870;12.562;2024-01-30T16:33:21;4.90;67.60
83828;DHT22;74656;48.870;12.562;2024-01-30T16:36:24;4.80;68.30
83828;DHT22;74656;48.870;12.562;2024-01-30T16:39:26;4.70;68.90
83828;DHT22;74656;48.870;12.562;2024-01-30T16:42:28;4.70;69.00
83828;DHT22;74656;48.870;12.562;2024-01-30T16:45:30;4.70;72.90
83828;DHT22;74656;48.870;12.562;2024-01-30T16:48:32;5.10;73.90
83828;DHT22;74656;48.870;12.562;2024-01-30T16:51:34;5.20;69.40
83828;DHT22;74656;48.870;12.562;2024-01-30T16:54:36;5.10;68.70
83828;DHT22;74656;48.870;12.562;2024-01-30T16:57:38;5.00;68.50
83828;DHT22;74656;48.870;12.562;2024-01-30T17:00:41;4.90;69.40
83828;DHT22;74656;48.870;12.562;2024-01-30T17:03:43;4.80;69.40
83828;DHT22;74656;48.870;12.562;2024-01-30T17:06:45;4.70;69.30
83828;DHT22;74656;48.870;12.562;2024-01-30T17:09:47;4.60;69.80
83828;DHT22;74656;48.870;12.562;2024-01-30T17:12:50;4.50;70.20
83828;DHT22;74656;48.870;12.562;2024-01-30T17:15:52;4.30;70.60
83828;DHT22;74656;48.870;12.562;2024-01-30T17:18:55;4.20;71.00
83828;DHT22;74656;48.870;12.562;2024-01-30T17:21:57;4.00;71.40
83828;DHT22;74656;48.870;12.562;2024-01-30T17:24:59;4.00;71.90
83828;DHT22;74656;48.870;12.562;2024-01-30T17:28:01;3.80;72.60
83828;DHT22;74656;48.870;12.562;2024-01-30T17:31:03;3.70;73.00
83828;DHT22;74656;48.870;12.562;2024-01-30T17:34:06;3.60;73.60
83828;DHT22;74656;48.870;12.562;2024-01-30T17:37:08;3.60;73.80
83828;DHT22;74656;48.870;12.562;2024-01-30T17:40:10;3.40;74.00
83828;DHT22;74656;48.870;12.562;2024-01-30T17:43:12;3.30;74.30
83828;DHT22;74656;48.870;12.562;2024-01-30T17:46:14;3.30;74.80
83828;DHT22;74656;48.870;12.562;2024-01-30T17:49:16;3.20;75.40
83828;DHT22;74656;48.870;12.562;2024-01-30T17:52:18;3.10;75.70
83828;DHT22;74656;48.870;12.562;2024-01-30T17:55:21;3.10;75.90
83828;DHT22;74656;48.870;12.562;2024-01-30T17:58:23;3.10;76.00
83828;DHT22;74656;48.870;12.562;2024-01-30T18:01:25;3.00;76.00
83828;DHT22;74656;48.870;12.562;2024-01-30T18:04:28;3.00;76.10
83828;DHT22;74656;48.870;12.562;2024-01-30T18:07:30;3.00;76.20
83828;DHT22;74656;48.870;12.562;2024-01-30T18:10:33;3.00;76.10
83828;DHT22;74656;48.870;12.562;2024-01-30T18:13:35;3.00;76.40
83828;DHT22;74656;48.870;12.562;2024-01-30T18:16:37;3.20;78.20
83828;DHT22;74656;48.870;12.562;2024-01-30T18:19:40;3.30;77.10
83828;DHT22;74656;48.870;12.562;2024-01-30T18:22:42;3.30;76.40
83828;DHT22;74656;48.870;12.562;2024-01-30T18:25:45;3.30;75.70
83828;DHT22;74656;48.870;12.562;2024-01-30T18:28:47;3.20;75.70
83828;DHT22;74656;48.870;12.562;2024-01-30T18:31:49;3.10;76.00
83828;DHT22;74656;48.870;12.562;2024-01-30T18:34:51;3.00;76.20
83828;DHT22;74656;48.870;12.562;2024-01-30T18:37:53;2.90;76.50
83828;DHT22;74656;48.870;12.562;2024-01-30T18:40:56;2.80;76.90
83828;DHT22;74656;48.870;12.562;2024-01-30T18:43:58;2.70;77.50
83828;DHT22;74656;48.870;12.562;2024-01-30T18:47:00;2.60;78.00
83828;DHT22;74656;48.870;12.562;2024-01-30T18:50:02;2.60;78.30
83828;DHT22;74656;48.870;12.562;2024-01-30T18:53:04;2.50;78.40
83828;DHT22;74656;48.870;12.562;2024-01-30T18:56:06;2.50;78.50
83828;DHT22;74656;48.870;12.562;2024-01-30T18:59:08;2.40;78.80